createdAt,value
2019-04-06T00:01:59.913Z,97427.27
2019-04-06T00:04:33.320Z,97427.27
2019-04-06T00:07:07.277Z,97426.69
2019-04-06T00:09:40.029Z,97428.33
2019-04-06T00:12:15.755Z,97430.20
2019-04-06T00:14:49.196Z,97433.11
2019-04-06T00:17:21.384Z,97425.94
2019-04-06T00:19:53.586Z,97431.52
2019-04-06T00:22:25.911Z,97430.17
2019-04-06T00:24:57.800Z,97423.52
2019-04-06T00:27:30.336Z,97424.33
2019-04-06T00:30:02.387Z,97423.53
2019-04-06T00:32:39.589Z,97424.84
2019-04-06T00:35:13.263Z,97418.96
2019-04-06T00:37:46.370Z,97417.12
2019-04-06T00:40:20.288Z,97421.36
2019-04-06T00:42:52.279Z,97416.83
2019-04-06T00:45:24.130Z,97419.48
2019-04-06T00:47:58.255Z,97424.56
2019-04-06T00:50:32.440Z,97423.72
2019-04-06T00:53:05.825Z,97427.47
2019-04-06T00:55:38.482Z,97430.89
2019-04-06T00:58:12.527Z,97426.89
2019-04-06T01:00:46.798Z,97434.63
2019-04-06T01:03:19.399Z,97431.94
2019-04-06T01:05:53.464Z,97433.55
2019-04-06T01:08:27.446Z,97435.09
2019-04-06T01:11:02.227Z,97436.91
2019-04-06T01:13:34.542Z,97436.11
2019-04-06T01:16:07.528Z,97439.60
2019-04-06T01:18:41.410Z,97433.75
2019-04-06T01:21:16.369Z,97442.29
2019-04-06T01:23:49.606Z,97433.75
2019-04-06T01:26:21.380Z,97438.81
2019-04-06T01:28:53.205Z,97438.02
2019-04-06T01:31:26.515Z,97434.86
2019-04-06T01:34:00.703Z,97429.01
2019-04-06T01:36:33.478Z,97430.03
2019-04-06T01:39:07.603Z,97423.91
2019-04-06T01:41:40.537Z,97417.01
2019-04-06T01:44:11.888Z,97427.11
2019-04-06T01:46:44.419Z,97427.86
2019-04-06T01:49:15.683Z,97428.66
2019-04-06T01:51:47.116Z,97431.09
2019-04-06T01:54:19.569Z,97431.41
2019-04-06T01:56:52.488Z,97429.50
2019-04-06T01:59:25.531Z,97429.01
2019-04-06T02:02:09.951Z,97425.27
2019-04-06T02:04:42.624Z,97420.77
2019-04-06T02:07:15.488Z,97418.38
2019-04-06T02:09:47.018Z,97422.89
2019-04-06T02:12:20.553Z,97421.35
2019-04-06T02:14:53.751Z,97422.98
2019-04-06T02:17:27.515Z,97418.17
2019-04-06T02:20:01.712Z,97420.05
2019-04-06T02:22:34.708Z,97420.59
2019-04-06T02:25:08.028Z,97418.50
2019-04-06T02:27:41.796Z,97417.92
2019-04-06T02:30:37.339Z,97415.52
2019-04-06T02:33:18.911Z,97425.41
2019-04-06T02:36:17.735Z,97419.33
2019-04-06T02:38:57.576Z,97425.48
2019-04-06T02:41:46.333Z,97428.91
2019-04-06T02:44:18.804Z,97432.13
2019-04-06T02:46:52.991Z,97435.87
2019-04-06T02:49:25.908Z,97434.58
2019-04-06T02:51:58.712Z,97437.49
2019-04-06T02:54:32.694Z,97441.81
2019-04-06T02:57:05.846Z,97445.80
2019-04-06T02:59:39.800Z,97447.97
2019-04-06T03:02:14.067Z,97442.64
2019-04-06T03:04:46.337Z,97438.38
2019-04-06T03:07:17.840Z,97441.08
2019-04-06T03:09:49.965Z,97443.76
2019-04-06T03:12:21.968Z,97439.23
2019-04-06T03:14:53.895Z,97436.86
2019-04-06T03:17:26.057Z,97437.64
2019-04-06T03:19:58.138Z,97435.27
2019-04-06T03:22:30.819Z,97430.20
2019-04-06T03:25:02.794Z,97426.50
2019-04-06T03:27:34.972Z,97425.70
2019-04-06T03:30:08.717Z,97423.86
2019-04-06T03:32:41.782Z,97430.49
2019-04-06T03:35:13.812Z,97432.91
2019-04-06T03:37:46.816Z,97440.09
2019-04-06T03:40:19.835Z,97436.91
2019-04-06T03:42:52.064Z,97435.84
2019-04-06T03:45:24.024Z,97437.98
2019-04-06T03:47:57.158Z,97436.91
2019-04-06T03:50:31.143Z,97443.04
2019-04-06T03:53:04.126Z,97432.90
2019-04-06T03:55:38.068Z,97438.47
2019-04-06T03:58:09.764Z,97441.38
2019-04-06T04:00:42.612Z,97447.75
2019-04-06T04:03:16.277Z,97448.55
2019-04-06T04:05:50.161Z,97453.86
2019-04-06T04:08:23.196Z,97443.47
2019-04-06T04:10:56.349Z,97441.33
2019-04-06T04:13:30.246Z,97440.28
2019-04-06T04:16:01.529Z,97438.67
2019-04-06T04:18:34.746Z,97443.73
2019-04-06T04:21:08.380Z,97443.19
2019-04-06T04:23:41.285Z,97444.52
2019-04-06T04:26:14.459Z,97456.48
2019-04-06T04:28:46.748Z,97449.30
2019-04-06T04:31:19.568Z,97459.12
2019-04-06T04:33:53.325Z,97465.24
2019-04-06T04:36:26.700Z,97470.80
2019-04-06T04:39:00.467Z,97472.11
2019-04-06T04:41:33.452Z,97474.24
2019-04-06T04:44:06.485Z,97473.15
2019-04-06T04:46:37.866Z,97485.09
2019-04-06T04:49:11.545Z,97484.27
2019-04-06T04:51:43.800Z,97497.53
2019-04-06T04:54:15.425Z,97502.55
2019-04-06T04:56:49.136Z,97499.36
2019-04-06T04:59:22.520Z,97507.57
2019-04-06T05:01:56.310Z,97506.53
2019-04-06T05:04:29.626Z,97503.66
2019-04-06T05:07:03.573Z,97516.42
2019-04-06T05:09:37.636Z,97520.92
2019-04-06T05:12:11.549Z,97523.57
2019-04-06T05:15:14.133Z,97520.11
2019-04-06T05:17:46.818Z,97523.30
2019-04-06T05:20:18.431Z,97519.61
2019-04-06T05:22:52.502Z,97519.93
2019-04-06T05:25:25.544Z,97531.16
2019-04-06T05:27:59.511Z,97521.06
2019-04-06T05:30:32.543Z,97530.68
2019-04-06T05:33:06.585Z,97530.45
2019-04-06T05:35:39.680Z,97536.88
2019-04-06T05:38:13.479Z,97537.41
2019-04-06T05:40:47.584Z,97537.19
2019-04-06T05:43:19.488Z,97546.79
2019-04-06T05:45:51.564Z,97546.79
2019-04-06T05:48:24.662Z,97541.22
2019-04-06T05:50:58.675Z,97545.48
2019-04-06T05:53:31.728Z,97544.68
2019-04-06T05:56:08.526Z,97549.75
2019-04-06T05:58:44.132Z,97552.41
2019-04-06T06:01:15.634Z,97557.19
2019-04-06T06:03:48.564Z,97554.26
2019-04-06T06:06:22.723Z,97559.58
2019-04-06T06:08:55.913Z,97560.09
2019-04-06T06:11:28.846Z,97555.31
2019-04-06T06:14:00.521Z,97567.02
2019-04-06T06:16:33.889Z,97565.69
2019-04-06T06:19:07.993Z,97557.16
2019-04-06T06:21:40.961Z,97566.47
2019-04-06T06:24:14.728Z,97559.53
2019-04-06T06:26:47.141Z,97570.20
2019-04-06T06:29:18.930Z,97572.03
2019-04-06T06:31:53.047Z,97575.45
2019-04-06T06:34:26.077Z,97572.84
2019-04-06T06:36:58.991Z,97581.62
2019-04-06T06:39:32.923Z,97584.05
2019-04-06T06:42:04.560Z,97576.03
2019-04-06T06:44:37.919Z,97593.64
2019-04-06T06:47:11.146Z,97586.73
2019-04-06T06:49:44.981Z,97585.37
2019-04-06T06:52:18.254Z,97583.52
2019-04-06T06:54:49.887Z,97588.02
2019-04-06T06:57:22.255Z,97598.39
2019-04-06T06:59:55.892Z,97595.71
2019-04-06T07:02:29.789Z,97593.83
2019-04-06T07:05:03.179Z,97597.02
2019-04-06T07:07:36.061Z,97601.81
2019-04-06T07:10:09.188Z,97606.86
2019-04-06T07:12:41.450Z,97595.63
2019-04-06T07:15:14.969Z,97606.30
2019-04-06T07:17:46.741Z,97602.84
2019-04-06T07:20:19.037Z,97611.07
2019-04-06T07:22:54.581Z,97612.41
2019-04-06T07:25:28.037Z,97614.02
2019-04-06T07:28:00.284Z,97621.48
2019-04-06T07:30:31.838Z,97618.53
2019-04-06T07:33:05.118Z,97619.59
2019-04-06T07:35:38.152Z,97610.16
2019-04-06T07:38:12.926Z,97606.00
2019-04-06T07:40:45.258Z,97607.33
2019-04-06T07:43:18.389Z,97608.59
2019-04-06T07:45:49.722Z,97602.08
2019-04-06T07:48:23.176Z,97603.20
2019-04-06T07:50:57.109Z,97609.80
2019-04-06T07:53:28.672Z,97609.06
2019-04-06T07:56:00.039Z,97612.66
2019-04-06T07:58:31.359Z,97609.33
2019-04-06T08:01:03.591Z,97604.72
2019-04-06T08:03:35.575Z,97610.00
2019-04-06T08:06:08.330Z,97600.30
2019-04-06T08:08:42.141Z,97614.95
2019-04-06T08:11:16.214Z,97614.95
2019-04-06T08:13:47.483Z,97604.31
2019-04-06T08:16:20.246Z,97611.22
2019-04-06T08:18:51.560Z,97605.73
2019-04-06T08:21:24.470Z,97611.28
2019-04-06T08:23:58.865Z,97603.73
2019-04-06T08:26:30.171Z,97604.64
2019-04-06T08:29:04.461Z,97614.08
2019-04-06T08:31:38.258Z,97616.48
2019-04-06T08:34:13.425Z,97609.54
2019-04-06T08:36:45.295Z,97613.17
2019-04-06T08:39:19.295Z,97618.16
2019-04-06T08:41:53.293Z,97614.71
2019-04-06T08:44:26.428Z,97622.09
2019-04-06T08:47:00.338Z,97623.66
2019-04-06T08:49:33.639Z,97620.43
2019-04-06T08:52:07.486Z,97613.23
2019-04-06T08:54:41.220Z,97614.03
2019-04-06T08:57:14.584Z,97615.09
2019-04-06T08:59:47.030Z,97612.39
2019-04-06T09:02:18.814Z,97613.59
2019-04-06T09:04:50.620Z,97613.59
2019-04-06T09:07:22.507Z,97611.50
2019-04-06T09:09:58.419Z,97613.55
2019-04-06T09:12:29.796Z,97616.41
2019-04-06T09:15:01.769Z,97617.56
2019-04-06T09:17:35.017Z,97608.69
2019-04-06T09:20:07.467Z,97618.29
2019-04-06T09:22:41.182Z,97631.23
2019-04-06T09:25:14.658Z,97608.75
2019-04-06T09:27:46.895Z,97618.83
2019-04-06T09:30:18.538Z,97608.43
2019-04-06T09:32:50.652Z,97614.98
2019-04-06T09:35:26.052Z,97604.08
2019-04-06T09:37:59.186Z,97619.84
2019-04-06T09:40:30.503Z,97614.82
2019-04-06T09:43:03.545Z,97605.61
2019-04-06T09:45:54.222Z,97614.56
2019-04-06T09:48:50.703Z,97605.42
2019-04-06T09:51:45.941Z,97603.05
2019-04-06T09:54:50.210Z,97594.28
2019-04-06T09:57:48.595Z,97591.98
2019-04-06T10:00:30.401Z,97582.09
2019-04-06T10:03:21.011Z,97588.33
2019-04-06T10:06:14.646Z,97580.91
2019-04-06T10:08:54.979Z,97588.66
2019-04-06T10:11:50.772Z,97578.52
2019-04-06T10:14:30.556Z,97566.66
2019-04-06T10:17:13.044Z,97573.77
2019-04-06T10:19:59.106Z,97564.03
2019-04-06T10:22:40.490Z,97564.89
2019-04-06T10:25:45.111Z,97563.08
2019-04-06T10:28:28.348Z,97556.30
2019-04-06T10:31:38.168Z,97556.66
2019-04-06T10:34:21.347Z,97555.54
2019-04-06T10:37:17.391Z,97552.25
2019-04-06T10:40:14.632Z,97551.67
2019-04-06T10:42:55.490Z,97553.83
2019-04-06T10:45:46.466Z,97547.49
2019-04-06T10:48:41.050Z,97552.36
2019-04-06T10:51:41.689Z,97538.08
2019-04-06T10:54:24.348Z,97500.45
2019-04-06T10:57:24.815Z,97542.94
2019-04-06T11:00:13.813Z,97541.25
2019-04-06T11:03:03.667Z,97532.84
2019-04-06T11:05:59.192Z,97530.76
2019-04-06T11:08:43.642Z,97525.13
2019-04-06T11:11:32.990Z,97529.89
2019-04-06T11:14:27.298Z,97511.58
2019-04-06T11:17:17.093Z,97504.19
2019-04-06T11:20:11.189Z,97511.38
2019-04-06T11:23:13.622Z,97490.86
2019-04-06T11:26:05.026Z,97492.46
2019-04-06T11:28:52.898Z,97482.04
2019-04-06T11:31:43.178Z,97472.98
2019-04-06T11:34:35.017Z,97473.20
2019-04-06T11:37:37.406Z,97472.11
2019-04-06T11:40:38.608Z,97467.09
2019-04-06T11:43:32.370Z,97467.05
2019-04-06T11:46:22.615Z,97455.67
2019-04-06T11:49:15.029Z,97462.66
2019-04-06T11:52:01.002Z,97457.69
2019-04-06T11:54:56.952Z,97454.14
2019-04-06T11:57:49.852Z,97447.17
2019-04-06T12:00:44.397Z,97451.28
2019-04-06T12:03:44.129Z,97438.05
2019-04-06T12:06:39.387Z,97439.00
2019-04-06T12:09:33.687Z,97439.92
2019-04-06T12:12:25.441Z,97438.66
2019-04-06T12:15:22.892Z,97433.91
2019-04-06T12:18:12.040Z,97426.43
2019-04-06T12:21:13.361Z,97439.75
2019-04-06T12:24:08.617Z,97425.73
2019-04-06T12:26:59.298Z,97417.02
2019-04-06T12:29:52.818Z,97411.02
2019-04-06T12:32:45.921Z,97413.28
2019-04-06T12:35:30.427Z,97409.91
2019-04-06T12:38:11.033Z,97417.27
2019-04-06T12:41:04.341Z,97403.47
2019-04-06T12:44:02.080Z,97411.00
2019-04-06T12:47:12.075Z,97405.45
2019-04-06T12:50:02.137Z,97402.54
2019-04-06T12:52:57.184Z,97402.84
2019-04-06T12:55:48.470Z,97387.39
2019-04-06T12:58:59.997Z,97397.97
2019-04-06T13:01:42.469Z,97389.74
2019-04-06T13:04:32.439Z,97374.66
2019-04-06T13:07:39.203Z,97376.78
2019-04-06T13:10:47.003Z,97389.84
2019-04-06T13:13:29.479Z,97392.31
2019-04-06T13:16:17.943Z,97388.58
2019-04-06T13:19:09.908Z,97389.59
2019-04-06T13:22:16.912Z,97379.20
2019-04-06T13:24:58.204Z,97378.12
2019-04-06T13:27:39.042Z,97366.61
2019-04-06T13:30:29.448Z,97390.07
2019-04-06T13:33:15.398Z,97376.52
2019-04-06T13:35:56.568Z,97362.67
2019-04-06T13:38:46.413Z,97364.27
2019-04-06T13:41:53.316Z,97365.85
2019-04-06T13:44:54.198Z,97367.27
2019-04-06T13:47:55.928Z,97364.33
2019-04-06T13:50:47.605Z,97357.11
2019-04-06T13:53:29.217Z,97367.42
2019-04-06T13:56:10.322Z,97379.64
2019-04-06T13:59:01.796Z,97366.12
2019-04-06T14:01:51.099Z,97362.00
2019-04-06T14:04:28.966Z,97367.89
2019-04-06T14:07:17.096Z,97371.22
2019-04-06T14:10:02.233Z,97379.77
2019-04-06T14:13:07.914Z,97366.46
2019-04-06T14:16:11.023Z,97370.84
2019-04-06T14:19:04.682Z,97381.20
2019-04-06T14:21:50.189Z,97381.63
2019-04-06T14:24:40.613Z,97382.80
2019-04-06T14:27:19.679Z,97369.33
2019-04-06T14:30:16.350Z,97386.45
2019-04-06T14:33:06.892Z,97376.48
2019-04-06T14:35:56.618Z,97383.27
2019-04-06T14:39:04.414Z,97379.00
2019-04-06T14:42:01.477Z,97379.00
2019-04-06T14:44:53.896Z,97400.21
2019-04-06T14:47:50.750Z,97395.77
2019-04-06T14:50:40.709Z,97390.86
2019-04-06T14:53:25.800Z,97389.29
2019-04-06T14:56:16.598Z,97370.07
2019-04-06T14:59:18.108Z,97397.50
2019-04-06T15:02:10.391Z,97402.67
2019-04-06T15:05:13.182Z,97402.60
2019-04-06T15:08:23.383Z,97393.97
2019-04-06T15:11:11.051Z,97401.67
2019-04-06T15:14:02.041Z,97407.48
2019-04-06T15:16:45.093Z,97406.61
2019-04-06T15:19:41.261Z,97431.33
2019-04-06T15:22:21.231Z,97417.37
2019-04-06T15:25:11.294Z,97410.31
2019-04-06T15:28:01.826Z,97414.83
2019-04-06T15:30:55.255Z,97411.41
2019-04-06T15:33:47.161Z,97409.66
2019-04-06T15:36:32.267Z,97407.41
2019-04-06T15:39:36.040Z,97430.02
2019-04-06T15:42:28.145Z,97412.27
2019-04-06T15:45:11.912Z,97415.50
2019-04-06T15:48:04.410Z,97408.59
2019-04-06T15:51:00.233Z,97411.42
2019-04-06T15:53:56.030Z,97431.11
2019-04-06T15:56:49.911Z,97410.95
2019-04-06T15:59:53.320Z,97410.88
2019-04-06T16:02:50.435Z,97423.59
2019-04-06T16:05:38.964Z,97424.08
2019-04-06T16:08:30.017Z,97416.55
2019-04-06T16:11:33.400Z,97422.53
2019-04-06T16:14:24.843Z,97421.54
2019-04-06T16:17:09.382Z,97433.22
2019-04-06T16:20:04.335Z,97408.11
2019-04-06T16:22:56.107Z,97424.84
2019-04-06T16:25:47.498Z,97422.22
2019-04-06T16:28:27.164Z,97411.66
2019-04-06T16:31:13.708Z,97421.52
2019-04-06T16:33:58.927Z,97415.27
2019-04-06T16:36:39.504Z,97424.44
2019-04-06T16:39:38.364Z,97425.39
2019-04-06T16:42:30.426Z,97422.60
2019-04-06T16:45:20.508Z,97415.50
2019-04-06T16:48:17.733Z,97420.38
2019-04-06T16:51:24.561Z,97426.84
2019-04-06T16:54:02.998Z,97434.89
2019-04-06T16:56:54.403Z,97423.91
2019-04-06T16:59:55.246Z,97445.97
2019-04-06T17:02:55.745Z,97433.86
2019-04-06T17:05:47.867Z,97437.14
2019-04-06T17:08:36.078Z,97441.13
2019-04-06T17:11:23.113Z,97446.59
2019-04-06T17:14:05.281Z,97442.11
2019-04-06T17:17:06.234Z,97443.50
2019-04-06T17:19:54.352Z,97448.97
2019-04-06T17:22:48.670Z,97455.03
2019-04-06T17:25:25.932Z,97438.30
2019-04-06T17:28:19.707Z,97446.08
2019-04-06T17:31:05.155Z,97448.44
2019-04-06T17:33:45.459Z,97450.95
2019-04-06T17:36:35.465Z,97447.80
2019-04-06T17:39:15.298Z,97448.58
2019-04-06T17:41:58.577Z,97448.63
2019-04-06T17:44:49.625Z,97450.64
2019-04-06T17:47:33.997Z,97448.33
2019-04-06T17:50:15.880Z,97452.66
2019-04-06T17:53:10.575Z,97466.45
2019-04-06T17:55:55.965Z,97465.73
2019-04-06T17:58:36.549Z,97462.66
2019-04-06T18:01:26.499Z,97462.97
2019-04-06T18:04:13.158Z,97465.34
2019-04-06T18:07:20.316Z,97469.02
2019-04-06T18:10:22.527Z,97472.51
2019-04-06T18:13:18.273Z,97478.20
2019-04-06T18:15:51.320Z,97476.77
2019-04-06T18:18:24.159Z,97476.00
2019-04-06T18:20:56.146Z,97476.00
2019-04-06T18:23:29.123Z,97482.30
2019-04-06T18:26:05.084Z,97483.72
2019-04-06T18:28:39.696Z,97478.37
2019-04-06T18:31:47.389Z,97486.27
2019-04-06T18:34:20.381Z,97318.36
2019-04-06T18:37:29.573Z,97491.22
2019-04-06T18:40:03.728Z,97489.12
2019-04-06T18:42:38.425Z,97491.26
2019-04-06T18:45:12.479Z,97488.41
2019-04-06T18:47:46.784Z,97492.70
2019-04-06T18:50:20.277Z,97494.63
2019-04-06T18:52:53.845Z,97494.75
2019-04-06T18:55:27.760Z,97498.28
2019-04-06T18:58:10.710Z,97498.02
2019-04-06T19:00:34.590Z,97495.88
2019-04-06T19:03:13.891Z,97502.09
2019-04-06T19:05:41.611Z,97502.09
2019-04-06T19:08:16.360Z,97501.64
2019-04-06T19:10:49.998Z,97509.63
2019-04-06T19:13:23.296Z,97503.48
2019-04-06T19:15:55.775Z,97499.02
2019-04-06T19:18:29.518Z,97501.53
2019-04-06T19:21:02.929Z,97498.14
2019-04-06T19:23:36.455Z,97497.07
2019-04-06T19:26:10.189Z,97496.64
2019-04-06T19:28:43.323Z,97509.19
2019-04-06T19:31:17.037Z,97507.80
2019-04-06T19:33:48.318Z,97509.58
2019-04-06T19:36:21.413Z,97506.88
2019-04-06T19:38:54.248Z,97507.05
2019-04-06T19:41:30.494Z,97507.10
2019-04-06T19:44:04.774Z,97512.17
2019-04-06T19:46:39.677Z,97506.44
2019-04-06T19:49:11.913Z,97508.59
2019-04-06T19:51:45.448Z,97505.66
2019-04-06T19:54:17.806Z,97499.80
2019-04-06T19:56:51.920Z,97501.71
2019-04-06T19:59:23.445Z,97505.27
2019-04-06T20:01:54.812Z,97497.02
2019-04-06T20:04:29.076Z,97497.02
2019-04-06T20:07:01.454Z,97502.13
2019-04-06T20:09:34.446Z,97497.66
2019-04-06T20:12:07.777Z,97499.78
2019-04-06T20:14:41.867Z,97495.23
2019-04-06T20:17:15.480Z,97495.01
2019-04-06T20:19:47.296Z,97491.81
2019-04-06T20:22:21.400Z,97497.94
2019-04-06T20:24:54.512Z,97489.44
2019-04-06T20:27:26.667Z,97487.66
2019-04-06T20:30:01.043Z,97477.34
2019-04-06T20:32:34.649Z,97477.34
2019-04-06T20:35:09.475Z,97479.47
2019-04-06T20:37:41.656Z,97476.84
2019-04-06T20:40:15.413Z,97479.00
2019-04-06T20:42:48.252Z,97470.98
2019-04-06T20:45:22.482Z,97473.13
2019-04-06T20:47:55.592Z,97474.22
2019-04-06T20:50:28.718Z,97471.81
2019-04-06T20:53:04.594Z,97469.97
2019-04-06T20:55:36.443Z,97472.92
2019-04-06T20:58:10.537Z,97465.69
2019-04-06T21:00:43.786Z,97458.52
2019-04-06T21:03:16.866Z,97458.52
2019-04-06T21:05:48.748Z,97464.36
2019-04-06T21:08:20.669Z,97461.48
2019-04-06T21:10:54.989Z,97456.39
2019-04-06T21:13:28.777Z,97456.15
2019-04-06T21:16:00.161Z,97450.25
2019-04-06T21:18:33.318Z,97448.70
2019-04-06T21:21:06.406Z,97452.70
2019-04-06T21:23:39.812Z,97450.81
2019-04-06T21:26:13.802Z,97438.04
2019-04-06T21:28:48.809Z,97455.37
2019-04-06T21:31:20.803Z,97448.94
2019-04-06T21:33:56.030Z,97456.45
2019-04-06T21:36:29.995Z,97446.31
2019-04-06T21:39:02.163Z,97444.22
2019-04-06T21:41:35.719Z,97444.22
2019-04-06T21:44:08.915Z,97445.04
2019-04-06T21:46:44.654Z,97441.58
2019-04-06T21:49:18.977Z,97439.48
2019-04-06T21:51:52.876Z,97442.66
2019-04-06T21:54:25.973Z,97440.55
2019-04-06T21:56:59.958Z,97443.76
2019-04-06T21:59:34.097Z,97446.13
2019-04-06T22:02:07.130Z,97439.48
2019-04-06T22:04:40.897Z,97435.78
2019-04-06T22:07:14.216Z,97447.50
2019-04-06T22:09:47.939Z,97437.39
2019-04-06T22:12:21.522Z,97438.19
2019-04-06T22:14:54.238Z,97439.00
2019-04-06T22:17:25.833Z,97437.92
2019-04-06T22:19:59.302Z,97436.31
2019-04-06T22:22:35.327Z,97431.00
2019-04-06T22:25:09.397Z,97429.17
2019-04-06T22:27:42.589Z,97421.98
2019-04-06T22:30:18.722Z,97422.53
2019-04-06T22:32:51.364Z,97427.06
2019-04-06T22:35:24.763Z,97431.30
2019-04-06T22:37:57.163Z,97422.26
2019-04-06T22:40:30.123Z,97425.20
2019-04-06T22:43:02.007Z,97420.94
2019-04-06T22:45:35.949Z,97423.05
2019-04-06T22:48:09.204Z,97418.81
2019-04-06T22:50:43.049Z,97414.83
2019-04-06T22:53:16.577Z,97421.47
2019-04-06T22:55:48.724Z,97417.48
2019-04-06T22:58:20.910Z,97416.44
2019-04-06T23:00:56.800Z,97412.40
2019-04-06T23:04:04.436Z,97415.06
2019-04-06T23:06:41.696Z,97407.91
2019-04-06T23:09:13.481Z,97414.83
2019-04-06T23:11:47.202Z,97406.30
2019-04-06T23:14:21.297Z,97410.54
2019-04-06T23:16:54.289Z,97404.20
2019-04-06T23:19:29.357Z,97403.09
2019-04-06T23:22:01.300Z,97401.52
2019-04-06T23:24:35.420Z,97403.62
2019-04-06T23:27:08.515Z,97401.52
2019-04-06T23:29:42.776Z,97398.85
2019-04-06T23:32:15.897Z,97391.41
2019-04-06T23:34:58.323Z,97390.61
2019-04-06T23:37:22.424Z,97389.27
2019-04-06T23:39:54.251Z,97387.94
2019-04-06T23:42:27.492Z,97386.61
2019-04-06T23:45:00.537Z,97380.74
2019-04-06T23:47:32.395Z,97376.23
2019-04-06T23:50:05.511Z,97367.98
2019-04-06T23:52:38.372Z,97376.48
2019-04-06T23:55:10.694Z,97372.50
2019-04-06T23:57:42.916Z,97365.33
